createdAt,value
2018-06-30T00:00:44.768Z,80.60
2018-06-30T00:03:12.893Z,80.90
2018-06-30T00:05:41.003Z,80.90
2018-06-30T00:08:09.150Z,81.00
2018-06-30T00:10:37.271Z,81.00
2018-06-30T00:13:05.399Z,81.20
2018-06-30T00:15:33.516Z,81.30
2018-06-30T00:18:01.628Z,81.40
2018-06-30T00:20:29.734Z,81.50
2018-06-30T00:22:57.857Z,81.40
2018-06-30T00:25:26.039Z,81.30
2018-06-30T00:27:56.090Z,81.40
2018-06-30T00:30:24.911Z,81.30
2018-06-30T00:32:53.095Z,81.40
2018-06-30T00:35:21.199Z,81.40
2018-06-30T00:37:49.312Z,81.50
2018-06-30T00:40:17.465Z,81.60
2018-06-30T00:42:45.742Z,81.60
2018-06-30T00:45:13.855Z,82.40
2018-06-30T00:47:41.996Z,81.70
2018-06-30T00:50:10.119Z,81.60
2018-06-30T00:52:38.261Z,81.50
2018-06-30T00:55:06.400Z,81.60
2018-06-30T00:57:34.519Z,81.60
2018-06-30T01:00:02.739Z,81.90
2018-06-30T01:02:30.858Z,81.90
2018-06-30T01:07:26.863Z,82.00
2018-06-30T01:09:55.142Z,82.00
2018-06-30T01:12:23.258Z,82.00
2018-06-30T01:14:51.364Z,82.00
2018-06-30T01:17:19.487Z,82.10
2018-06-30T01:19:47.631Z,82.40
2018-06-30T01:22:15.773Z,82.40
2018-06-30T01:24:43.883Z,82.40
2018-06-30T01:27:12.000Z,82.30
2018-06-30T01:29:40.111Z,82.10
2018-06-30T01:32:08.215Z,82.30
2018-06-30T01:37:04.278Z,82.50
2018-06-30T01:39:32.397Z,82.50
2018-06-30T01:42:00.598Z,82.50
2018-06-30T01:44:28.702Z,82.50
2018-06-30T01:46:56.942Z,83.00
2018-06-30T01:49:25.065Z,82.50
2018-06-30T01:51:53.171Z,82.50
2018-06-30T01:54:21.284Z,82.30
2018-06-30T01:56:49.382Z,82.40
2018-06-30T01:59:17.494Z,82.60
2018-06-30T02:01:45.594Z,82.60
2018-06-30T02:06:41.574Z,83.10
2018-06-30T02:09:10.906Z,82.90
2018-06-30T02:11:39.481Z,82.70
2018-06-30T02:14:07.974Z,82.60
2018-06-30T02:16:36.087Z,82.30
2018-06-30T02:19:04.303Z,82.20
2018-06-30T02:21:32.433Z,82.10
2018-06-30T02:24:00.502Z,82.30
2018-06-30T02:26:28.599Z,82.10
2018-06-30T02:28:56.706Z,82.10
2018-06-30T02:31:24.856Z,82.40
2018-06-30T02:33:52.964Z,82.60
2018-06-30T02:36:21.059Z,82.70
2018-06-30T02:38:49.158Z,82.70
2018-06-30T02:41:17.256Z,82.80
2018-06-30T02:43:45.359Z,82.90
2018-06-30T02:46:13.457Z,82.80
2018-06-30T02:48:41.563Z,83.20
2018-06-30T02:51:10.479Z,83.00
2018-06-30T02:53:38.583Z,82.70
2018-06-30T02:56:06.679Z,82.90
2018-06-30T02:58:34.774Z,83.10
2018-06-30T03:01:02.915Z,83.10
2018-06-30T03:03:31.168Z,83.00
2018-06-30T03:05:59.278Z,83.10
2018-06-30T03:08:27.389Z,83.00
2018-06-30T03:10:55.953Z,83.10
2018-06-30T03:13:24.067Z,83.30
2018-06-30T03:15:52.162Z,83.50
2018-06-30T03:18:20.270Z,83.70
2018-06-30T03:20:48.375Z,83.50
2018-06-30T03:23:16.493Z,82.80
2018-06-30T03:25:44.638Z,83.10
2018-06-30T03:28:12.736Z,81.80
2018-06-30T03:30:40.912Z,82.40
2018-06-30T03:33:08.999Z,81.70
2018-06-30T03:35:37.103Z,81.80
2018-06-30T03:38:05.377Z,82.30
2018-06-30T03:40:33.514Z,82.70
2018-06-30T03:43:01.614Z,82.90
2018-06-30T03:45:29.729Z,83.00
2018-06-30T03:47:57.920Z,83.00
2018-06-30T03:50:26.023Z,83.10
2018-06-30T03:52:54.201Z,83.30
2018-06-30T03:55:22.397Z,83.10
2018-06-30T03:57:50.570Z,83.30
2018-06-30T04:00:18.685Z,83.50
2018-06-30T04:05:30.486Z,83.60
2018-06-30T04:07:58.775Z,83.70
2018-06-30T04:10:26.878Z,83.70
2018-06-30T04:12:54.978Z,83.90
2018-06-30T04:15:23.096Z,84.10
2018-06-30T04:17:51.379Z,84.20
2018-06-30T04:20:19.483Z,84.20
2018-06-30T04:22:47.771Z,84.40
2018-06-30T04:25:15.886Z,84.50
2018-06-30T04:27:44.101Z,84.60
2018-06-30T04:30:12.194Z,84.80
2018-06-30T04:32:40.294Z,84.70
2018-06-30T04:35:08.398Z,84.80
2018-06-30T04:37:36.494Z,84.70
2018-06-30T04:40:04.808Z,84.90
2018-06-30T04:42:32.922Z,85.00
2018-06-30T04:45:01.035Z,85.00
2018-06-30T04:47:29.652Z,85.00
2018-06-30T04:49:57.986Z,85.00
2018-06-30T04:52:26.135Z,85.30
2018-06-30T04:54:54.255Z,85.40
2018-06-30T04:57:22.351Z,85.70
2018-06-30T04:59:50.458Z,85.80
2018-06-30T05:02:18.613Z,85.80
2018-06-30T05:04:46.710Z,85.90
2018-06-30T05:07:14.952Z,85.90
2018-06-30T05:09:43.062Z,85.90
2018-06-30T05:12:11.158Z,86.90
2018-06-30T05:14:40.194Z,86.30
2018-06-30T05:17:08.291Z,86.50
2018-06-30T05:19:36.394Z,86.20
2018-06-30T05:22:04.498Z,86.40
2018-06-30T05:24:32.798Z,86.20
2018-06-30T05:27:00.897Z,86.30
2018-06-30T05:29:29.052Z,86.10
2018-06-30T05:31:57.168Z,86.00
2018-06-30T05:34:25.286Z,85.60
2018-06-30T05:36:53.394Z,85.30
2018-06-30T05:39:21.498Z,85.10
2018-06-30T05:41:49.598Z,85.00
2018-06-30T05:44:17.698Z,84.80
2018-06-30T05:46:45.873Z,84.40
2018-06-30T05:49:13.972Z,84.30
2018-06-30T05:51:42.079Z,84.30
2018-06-30T05:54:10.698Z,84.80
2018-06-30T05:56:45.342Z,84.50
2018-06-30T05:59:13.506Z,84.60
2018-06-30T06:01:41.558Z,84.50
2018-06-30T06:04:09.666Z,84.50
2018-06-30T06:06:37.819Z,84.30
2018-06-30T06:09:07.702Z,84.50
2018-06-30T06:11:35.927Z,84.10
2018-06-30T06:14:04.210Z,83.90
2018-06-30T06:16:32.387Z,83.70
2018-06-30T06:19:00.531Z,83.70
2018-06-30T06:21:28.636Z,83.40
2018-06-30T06:23:56.738Z,82.80
2018-06-30T06:26:24.843Z,82.80
2018-06-30T06:28:53.275Z,83.20
2018-06-30T06:33:49.368Z,82.00
2018-06-30T06:36:17.475Z,80.80
2018-06-30T06:38:45.575Z,79.80
2018-06-30T06:41:13.685Z,79.80
2018-06-30T06:43:41.783Z,80.30
2018-06-30T06:46:09.890Z,80.60
2018-06-30T06:48:37.991Z,81.00
2018-06-30T06:51:06.202Z,80.90
2018-06-30T06:53:34.339Z,81.40
2018-06-30T06:56:02.446Z,80.40
2018-06-30T06:58:30.550Z,80.00
2018-06-30T07:00:58.670Z,80.10
2018-06-30T07:03:26.766Z,78.70
2018-06-30T07:05:54.906Z,77.50
2018-06-30T07:08:22.982Z,79.00
2018-06-30T07:10:51.150Z,77.80
2018-06-30T07:13:19.247Z,76.90
2018-06-30T07:15:47.399Z,76.50
2018-06-30T07:18:15.499Z,76.00
2018-06-30T07:20:43.602Z,76.80
2018-06-30T07:23:11.711Z,77.00
2018-06-30T07:25:39.852Z,76.60
2018-06-30T07:28:08.102Z,76.00
2018-06-30T07:30:36.349Z,75.70
2018-06-30T07:33:04.303Z,75.20
2018-06-30T07:35:32.401Z,73.90
2018-06-30T07:38:00.503Z,74.00
2018-06-30T07:40:28.603Z,73.10
2018-06-30T07:42:56.707Z,73.20
2018-06-30T07:45:24.826Z,74.10
2018-06-30T07:47:52.934Z,73.50
2018-06-30T07:50:21.062Z,73.30
2018-06-30T07:52:49.146Z,74.20
2018-06-30T07:55:17.635Z,73.80
2018-06-30T07:57:45.755Z,73.60
2018-06-30T08:00:14.114Z,72.50
2018-06-30T08:02:42.299Z,73.60
2018-06-30T08:05:10.403Z,72.60
2018-06-30T08:07:38.539Z,72.80
2018-06-30T08:10:06.647Z,72.80
2018-06-30T08:15:03.123Z,73.00
2018-06-30T08:17:31.234Z,73.10
2018-06-30T08:19:59.342Z,72.00
2018-06-30T08:22:27.702Z,70.70
2018-06-30T08:24:55.859Z,72.00
2018-06-30T08:27:23.990Z,71.70
2018-06-30T08:29:52.111Z,70.80
2018-06-30T08:32:20.299Z,70.50
2018-06-30T08:34:48.427Z,68.10
2018-06-30T08:37:16.544Z,67.50
2018-06-30T08:39:44.634Z,68.80
2018-06-30T08:42:12.811Z,69.00
2018-06-30T08:47:08.862Z,68.30
2018-06-30T08:49:36.982Z,69.30
2018-06-30T08:52:05.172Z,66.10
2018-06-30T08:54:34.535Z,68.20
2018-06-30T08:57:02.792Z,69.50
2018-06-30T08:59:30.910Z,68.90
2018-06-30T09:01:59.092Z,70.20
2018-06-30T09:04:27.262Z,70.10
2018-06-30T09:06:55.370Z,66.50
2018-06-30T09:09:25.234Z,65.90
2018-06-30T09:11:53.328Z,67.30
2018-06-30T09:14:21.419Z,65.70
2018-06-30T09:16:49.554Z,64.90
2018-06-30T09:19:17.734Z,66.40
2018-06-30T09:21:45.838Z,68.20
2018-06-30T09:24:13.968Z,66.60
2018-06-30T09:26:44.527Z,68.40
2018-06-30T09:29:12.629Z,66.20
2018-06-30T09:31:40.744Z,65.50
2018-06-30T09:34:10.508Z,65.10
2018-06-30T09:36:39.874Z,63.50
2018-06-30T09:39:10.315Z,61.50
2018-06-30T09:41:38.483Z,61.90
2018-06-30T09:44:07.069Z,61.90
2018-06-30T09:46:35.234Z,60.60
2018-06-30T09:49:03.362Z,61.30
2018-06-30T09:51:31.483Z,61.00
2018-06-30T09:53:59.591Z,60.90
2018-06-30T09:56:27.698Z,59.60
2018-06-30T09:58:55.804Z,59.50
2018-06-30T10:01:23.891Z,59.60
2018-06-30T10:03:52.004Z,60.30
2018-06-30T10:06:20.090Z,61.20
2018-06-30T10:08:48.210Z,59.60
2018-06-30T10:11:16.318Z,59.40
2018-06-30T10:13:44.423Z,58.80
2018-06-30T10:16:12.511Z,57.60
2018-06-30T10:18:40.620Z,57.70
2018-06-30T10:21:08.755Z,57.40
2018-06-30T10:23:36.846Z,57.60
2018-06-30T10:26:04.934Z,59.30
2018-06-30T10:28:33.058Z,59.50
2018-06-30T10:31:01.206Z,57.30
2018-06-30T10:33:29.388Z,55.60
2018-06-30T10:35:57.472Z,56.40
2018-06-30T10:38:25.573Z,55.50
2018-06-30T10:40:53.890Z,55.10
2018-06-30T10:43:22.010Z,54.80
2018-06-30T10:45:50.103Z,55.20
2018-06-30T10:48:18.274Z,53.90
2018-06-30T10:50:46.428Z,55.90
2018-06-30T10:53:15.145Z,53.60
2018-06-30T10:55:43.335Z,53.90
2018-06-30T10:58:11.454Z,55.20
2018-06-30T11:00:39.543Z,51.80
2018-06-30T11:03:07.667Z,53.00
2018-06-30T11:05:35.756Z,51.20
2018-06-30T11:08:03.866Z,53.20
2018-06-30T11:10:32.008Z,52.90
2018-06-30T11:13:00.104Z,52.70
2018-06-30T11:15:28.223Z,51.60
2018-06-30T11:17:56.349Z,52.70
2018-06-30T11:20:24.773Z,51.70
2018-06-30T11:22:54.102Z,49.50
2018-06-30T11:25:22.315Z,49.10
2018-06-30T11:27:54.109Z,48.60
2018-06-30T11:30:22.472Z,50.40
2018-06-30T11:32:50.597Z,50.60
2018-06-30T11:35:18.687Z,51.60
2018-06-30T11:37:46.893Z,50.40
2018-06-30T11:40:14.979Z,50.10
2018-06-30T11:42:43.087Z,48.70
2018-06-30T11:45:11.178Z,50.10
2018-06-30T11:47:39.294Z,49.30
2018-06-30T11:50:07.530Z,51.10
2018-06-30T11:52:35.674Z,51.40
2018-06-30T11:55:03.786Z,50.90
2018-06-30T11:57:31.883Z,49.40
2018-06-30T11:59:59.990Z,51.50
2018-06-30T12:02:28.078Z,50.30
2018-06-30T12:04:56.187Z,49.40
2018-06-30T12:07:24.270Z,49.20
2018-06-30T12:12:20.246Z,48.90
2018-06-30T12:14:48.351Z,48.90
2018-06-30T12:17:16.455Z,49.00
2018-06-30T12:19:44.566Z,49.50
2018-06-30T12:22:12.666Z,48.20
2018-06-30T12:24:40.770Z,48.40
2018-06-30T12:27:08.877Z,50.00
2018-06-30T12:29:36.987Z,51.00
2018-06-30T12:32:05.134Z,49.50
2018-06-30T12:34:33.190Z,49.40
2018-06-30T12:37:01.284Z,49.00
2018-06-30T12:39:29.386Z,47.40
2018-06-30T12:41:57.490Z,48.00
2018-06-30T12:44:25.594Z,49.80
2018-06-30T12:46:53.714Z,48.70
2018-06-30T12:49:21.823Z,48.50
2018-06-30T12:51:49.914Z,47.80
2018-06-30T12:54:18.102Z,48.00
2018-06-30T12:56:46.106Z,47.60
2018-06-30T12:59:14.211Z,49.00
2018-06-30T13:01:42.304Z,49.20
2018-06-30T13:04:10.407Z,47.70
2018-06-30T13:06:38.490Z,47.40
2018-06-30T13:09:08.651Z,48.50
2018-06-30T13:11:36.859Z,46.40
2018-06-30T13:14:05.964Z,46.80
2018-06-30T13:16:34.369Z,47.40
2018-06-30T13:19:02.494Z,46.80
2018-06-30T13:21:30.662Z,45.70
2018-06-30T13:23:58.844Z,45.60
2018-06-30T13:26:27.036Z,45.70
2018-06-30T13:28:55.234Z,47.30
2018-06-30T13:31:23.403Z,46.80
2018-06-30T13:33:51.482Z,45.80
2018-06-30T13:36:19.610Z,45.10
2018-06-30T13:38:48.776Z,45.20
2018-06-30T13:41:17.202Z,45.20
2018-06-30T13:43:45.437Z,45.20
2018-06-30T13:46:13.482Z,46.40
2018-06-30T13:48:41.563Z,46.60
2018-06-30T13:51:09.664Z,47.10
2018-06-30T13:53:37.861Z,46.80
2018-06-30T13:56:06.383Z,46.70
2018-06-30T13:58:34.486Z,45.50
2018-06-30T14:01:02.583Z,46.50
2018-06-30T14:03:30.674Z,47.00
2018-06-30T14:05:58.907Z,47.40
2018-06-30T14:08:26.978Z,47.00
2018-06-30T14:10:55.174Z,48.20
2018-06-30T14:13:23.270Z,46.50
2018-06-30T14:15:51.420Z,47.30
2018-06-30T14:18:23.350Z,46.10
2018-06-30T14:20:51.471Z,47.60
2018-06-30T14:23:19.639Z,46.80
2018-06-30T14:25:47.826Z,46.20
2018-06-30T14:28:15.959Z,45.60
2018-06-30T14:30:44.146Z,44.80
2018-06-30T14:33:12.314Z,45.50
2018-06-30T14:35:40.503Z,45.70
2018-06-30T14:38:08.666Z,46.30
2018-06-30T14:40:36.763Z,47.20
2018-06-30T14:43:04.868Z,46.00
2018-06-30T14:45:32.974Z,46.30
2018-06-30T14:48:01.158Z,45.90
2018-06-30T14:50:29.363Z,45.70
2018-06-30T14:52:57.454Z,45.90
2018-06-30T14:55:25.561Z,46.50
2018-06-30T14:57:53.663Z,46.90
2018-06-30T15:00:21.888Z,46.50
2018-06-30T15:02:50.255Z,47.00
2018-06-30T15:05:18.396Z,47.10
2018-06-30T15:07:46.498Z,47.10
2018-06-30T15:10:14.612Z,46.50
2018-06-30T15:12:42.714Z,46.30
2018-06-30T15:15:10.819Z,46.40
2018-06-30T15:17:38.939Z,47.00
2018-06-30T15:20:07.248Z,46.60
2018-06-30T15:22:35.366Z,48.20
2018-06-30T15:25:03.475Z,48.40
2018-06-30T15:27:31.567Z,48.80
2018-06-30T15:29:59.684Z,49.10
2018-06-30T15:32:27.779Z,49.10
2018-06-30T15:34:55.943Z,49.50
2018-06-30T15:37:24.046Z,49.50
2018-06-30T15:39:52.151Z,50.20
2018-06-30T15:42:20.259Z,50.70
2018-06-30T15:44:48.443Z,50.60
2018-06-30T15:47:16.546Z,51.30
2018-06-30T15:49:44.644Z,51.10
2018-06-30T15:52:12.759Z,50.80
2018-06-30T15:54:40.935Z,51.40
2018-06-30T15:57:09.127Z,51.10
2018-06-30T15:59:37.227Z,52.70
2018-06-30T16:02:05.359Z,50.30
2018-06-30T16:04:33.711Z,50.30
2018-06-30T16:07:01.929Z,50.00
2018-06-30T16:09:30.023Z,50.80
2018-06-30T16:11:58.125Z,51.40
2018-06-30T16:14:26.321Z,50.10
2018-06-30T16:16:54.419Z,50.70
2018-06-30T16:19:22.514Z,50.90
2018-06-30T16:21:50.708Z,52.90
2018-06-30T16:24:18.932Z,52.40
2018-06-30T16:26:47.802Z,52.70
2018-06-30T16:29:19.510Z,52.30
2018-06-30T16:31:47.623Z,52.90
2018-06-30T16:34:15.698Z,52.40
2018-06-30T16:36:43.795Z,51.80
2018-06-30T16:39:12.406Z,51.70
2018-06-30T16:41:40.866Z,52.40
2018-06-30T16:44:08.957Z,51.10
2018-06-30T16:46:37.626Z,50.90
2018-06-30T16:49:06.260Z,51.80
2018-06-30T16:51:34.310Z,51.20
2018-06-30T16:54:02.407Z,50.80
2018-06-30T16:56:30.518Z,51.50
2018-06-30T16:58:58.677Z,51.60
2018-06-30T17:01:26.811Z,51.80
2018-06-30T17:03:54.915Z,51.10
2018-06-30T17:06:23.016Z,51.30
2018-06-30T17:08:51.112Z,51.20
2018-06-30T17:13:47.234Z,51.30
2018-06-30T17:16:15.386Z,50.90
2018-06-30T17:18:43.667Z,51.20
2018-06-30T17:21:11.775Z,51.00
2018-06-30T17:23:39.906Z,50.80
2018-06-30T17:26:08.089Z,50.30
2018-06-30T17:28:36.138Z,50.50
2018-06-30T17:31:04.230Z,50.20
2018-06-30T17:33:32.627Z,50.00
2018-06-30T17:36:00.730Z,50.40
2018-06-30T17:38:28.839Z,49.80
2018-06-30T17:40:56.934Z,50.30
2018-06-30T17:43:25.058Z,50.90
2018-06-30T17:45:53.155Z,50.80
2018-06-30T17:48:21.470Z,50.50
2018-06-30T17:50:49.743Z,50.50
2018-06-30T17:53:18.007Z,50.90
2018-06-30T17:55:46.090Z,50.80
2018-06-30T17:58:14.203Z,51.00
2018-06-30T18:00:42.410Z,50.60
2018-06-30T18:03:10.571Z,50.70
2018-06-30T18:05:38.663Z,50.60
2018-06-30T18:08:06.779Z,50.70
2018-06-30T18:10:34.879Z,50.20
2018-06-30T18:13:02.978Z,50.50
2018-06-30T18:15:31.090Z,50.20
2018-06-30T18:17:59.190Z,50.30
2018-06-30T18:20:27.418Z,50.60
2018-06-30T18:22:55.559Z,50.60
2018-06-30T18:25:23.669Z,50.70
2018-06-30T18:27:51.787Z,51.00
2018-06-30T18:30:19.913Z,51.10
2018-06-30T18:32:48.049Z,51.30
2018-06-30T18:35:16.336Z,50.90
2018-06-30T18:37:44.466Z,50.90
2018-06-30T18:40:12.638Z,50.80
2018-06-30T18:45:08.838Z,51.30
2018-06-30T18:47:36.935Z,51.40
2018-06-30T18:50:05.336Z,51.40
2018-06-30T18:52:33.461Z,51.20
2018-06-30T18:55:01.643Z,51.20
2018-06-30T18:57:29.825Z,51.10
2018-06-30T18:59:57.907Z,51.20
2018-06-30T19:02:26.178Z,51.10
2018-06-30T19:04:54.270Z,52.00
2018-06-30T19:07:22.627Z,51.90
2018-06-30T19:09:50.727Z,51.70
2018-06-30T19:12:18.858Z,51.30
2018-06-30T19:14:46.974Z,51.00
2018-06-30T19:17:15.087Z,50.80
2018-06-30T19:19:43.182Z,50.70
2018-06-30T19:22:11.347Z,51.10
2018-06-30T19:24:39.762Z,51.20
2018-06-30T19:27:07.902Z,51.10
2018-06-30T19:29:36.547Z,51.30
2018-06-30T19:32:04.779Z,50.90
2018-06-30T19:34:32.931Z,51.00
2018-06-30T19:37:01.090Z,51.00
2018-06-30T19:39:29.190Z,50.90
2018-06-30T19:41:57.347Z,51.20
2018-06-30T19:44:25.526Z,51.20
2018-06-30T19:46:53.694Z,50.80
2018-06-30T19:49:21.887Z,51.00
2018-06-30T19:51:49.993Z,50.90
2018-06-30T19:54:18.145Z,50.50
2018-06-30T19:56:47.604Z,49.80
2018-06-30T19:59:17.627Z,49.50
2018-06-30T20:01:46.822Z,48.90
2018-06-30T20:04:15.019Z,48.60
2018-06-30T20:06:43.174Z,48.30
2018-06-30T20:09:11.341Z,47.70
2018-06-30T20:11:39.530Z,47.30
2018-06-30T20:14:07.646Z,46.80
2018-06-30T20:16:35.743Z,46.60
2018-06-30T20:19:03.843Z,46.50
2018-06-30T20:21:31.936Z,46.80
2018-06-30T20:24:00.044Z,46.50
2018-06-30T20:26:28.130Z,44.90
2018-06-30T20:28:56.239Z,43.70
2018-06-30T20:31:24.410Z,43.20
2018-06-30T20:33:52.747Z,42.80
2018-06-30T20:36:20.822Z,43.20
2018-06-30T20:38:48.936Z,43.10
2018-06-30T20:41:17.046Z,42.00
2018-06-30T20:43:45.171Z,42.50
2018-06-30T20:46:13.254Z,42.90
2018-06-30T20:48:41.390Z,43.20
2018-06-30T20:51:09.466Z,43.30
2018-06-30T20:53:37.562Z,43.20
2018-06-30T20:56:05.658Z,41.20
2018-06-30T20:58:33.759Z,40.00
2018-06-30T21:01:01.869Z,39.30
2018-06-30T21:03:30.059Z,39.00
2018-06-30T21:05:58.155Z,38.60
2018-06-30T21:08:26.263Z,38.30
2018-06-30T21:10:54.350Z,38.80
2018-06-30T21:13:22.554Z,38.90
2018-06-30T21:15:50.654Z,38.30
2018-06-30T21:18:19.719Z,38.00
2018-06-30T21:20:47.873Z,37.70
2018-06-30T21:23:15.934Z,38.10
2018-06-30T21:25:44.039Z,37.00
2018-06-30T21:28:12.403Z,37.00
2018-06-30T21:30:40.591Z,36.10
2018-06-30T21:33:08.595Z,36.10
2018-06-30T21:35:36.715Z,36.20
2018-06-30T21:38:05.030Z,36.80
2018-06-30T21:40:33.126Z,36.00
2018-06-30T21:43:01.235Z,35.60
2018-06-30T21:45:29.437Z,35.80
2018-06-30T21:47:57.570Z,35.30
2018-06-30T21:50:25.779Z,35.40
2018-06-30T21:52:53.886Z,36.00
2018-06-30T21:55:21.978Z,35.50
2018-06-30T21:57:50.130Z,34.50
2018-06-30T22:00:27.199Z,34.70
2018-06-30T22:02:55.314Z,35.00
2018-06-30T22:05:23.412Z,35.40
2018-06-30T22:07:51.506Z,34.50
2018-06-30T22:10:19.599Z,35.10
2018-06-30T22:12:47.695Z,35.00
2018-06-30T22:15:15.795Z,34.60
2018-06-30T22:17:43.978Z,34.70
2018-06-30T22:20:12.083Z,35.10
2018-06-30T22:22:40.174Z,34.90
2018-06-30T22:25:08.795Z,35.30
2018-06-30T22:27:36.890Z,36.30
2018-06-30T22:30:04.987Z,36.00
2018-06-30T22:32:33.074Z,36.20
2018-06-30T22:35:01.199Z,36.30
2018-06-30T22:37:29.291Z,36.10
2018-06-30T22:40:09.027Z,36.60
2018-06-30T22:42:37.110Z,37.30
2018-06-30T22:45:05.231Z,37.40
2018-06-30T22:47:33.323Z,37.70
2018-06-30T22:50:01.427Z,38.00
2018-06-30T22:52:29.518Z,38.30
2018-06-30T22:54:57.622Z,38.30
2018-06-30T22:57:25.839Z,38.40
2018-06-30T22:59:53.990Z,38.80
2018-06-30T23:02:22.183Z,38.50
2018-06-30T23:04:50.306Z,38.90
2018-06-30T23:07:18.395Z,39.10
2018-06-30T23:09:46.490Z,39.60
2018-06-30T23:12:14.579Z,39.80
2018-06-30T23:14:42.788Z,39.80
2018-06-30T23:19:38.755Z,40.70
2018-06-30T23:22:06.855Z,40.50
2018-06-30T23:24:34.983Z,40.40
2018-06-30T23:27:03.071Z,41.10
2018-06-30T23:29:31.167Z,40.90
2018-06-30T23:31:59.331Z,40.60
2018-06-30T23:34:27.443Z,40.20
2018-06-30T23:36:55.522Z,40.20
2018-06-30T23:39:23.623Z,40.70
2018-06-30T23:41:51.823Z,39.80
2018-06-30T23:44:19.918Z,39.90
2018-06-30T23:46:48.003Z,40.10
2018-06-30T23:49:16.094Z,40.00
2018-06-30T23:51:44.204Z,40.20
2018-06-30T23:54:12.288Z,39.80
2018-06-30T23:56:40.383Z,40.40
2018-06-30T23:59:08.470Z,40.30
